CFA5 weather

Grande Airport
Grande, Alberta, Canada

Public forecast

Using degrees Celsius for public forecast. Weather courtesy of forecast.io.

METAR (pilot weather report)

Closest report is Fort McMurray Airport, 39.7 nm (73.5 km) ENE. Retrieved 2019/08/24 23:00 UTC (1 hour ago):

CYMM 242300Z AUTO 27009KT 9SM FEW065 BKN110 22/08 A2959 RMK LTNG DIST E SLP026 DENSITY ALT 2600FT

TAF (pilot weather forecast)

Closest forecast is Fort McMurray Airport, 39.7 nm (73.5 km) ENE. Retrieved 2019/08/25 01:42 UTC (0 seconds ago):

TAF CYMM 250038Z 2501/2513 26008KT P6SM SCT100 BKN200 FM250600 24006KT P6SM SCT060 TEMPO 2506/2510 BKN060 FM251000 VRB03KT P6SM FEW050 PROB30 2510/2512 3/4SM BR RMK FCST BASED ON AUTO OBS. NXT FCST BY 250700Z